sensor_id;sensor_type;location;lat;lon;timestamp;P1;durP1;ratioP1;P2;durP2;ratioP2
4290;SDS011;2159;50.906;7.152;2024-03-07T00:00:55;25.80;;;15.00;;
4290;SDS011;2159;50.906;7.152;2024-03-07T00:03:22;28.57;;;16.80;;
4290;SDS011;2159;50.906;7.152;2024-03-07T00:05:50;25.33;;;15.57;;
4290;SDS011;2159;50.906;7.152;2024-03-07T00:08:18;25.63;;;15.10;;
4290;SDS011;2159;50.906;7.152;2024-03-07T00:10:45;24.00;;;15.20;;
4290;SDS011;2159;50.906;7.152;2024-03-07T00:13:13;26.30;;;15.50;;
4290;SDS011;2159;50.906;7.152;2024-03-07T00:15:41;26.37;;;15.57;;
4290;SDS011;2159;50.906;7.152;2024-03-07T00:18:10;26.07;;;15.23;;
4290;SDS011;2159;50.906;7.152;2024-03-07T00:20:38;29.47;;;17.10;;
4290;SDS011;2159;50.906;7.152;2024-03-07T00:23:05;27.87;;;16.20;;
4290;SDS011;2159;50.906;7.152;2024-03-07T00:25:35;27.53;;;15.60;;
4290;SDS011;2159;50.906;7.152;2024-03-07T00:28:02;26.73;;;16.13;;
4290;SDS011;2159;50.906;7.152;2024-03-07T00:30:30;26.20;;;15.43;;
4290;SDS011;2159;50.906;7.152;2024-03-07T00:32:57;27.73;;;15.60;;
4290;SDS011;2159;50.906;7.152;2024-03-07T00:35:26;26.67;;;16.07;;
4290;SDS011;2159;50.906;7.152;2024-03-07T00:37:54;25.90;;;15.50;;
4290;SDS011;2159;50.906;7.152;2024-03-07T00:40:22;26.97;;;15.67;;
4290;SDS011;2159;50.906;7.152;2024-03-07T00:42:50;26.20;;;15.50;;
4290;SDS011;2159;50.906;7.152;2024-03-07T00:45:17;28.30;;;16.30;;
4290;SDS011;2159;50.906;7.152;2024-03-07T00:47:45;24.93;;;15.33;;
4290;SDS011;2159;50.906;7.152;2024-03-07T00:50:14;25.70;;;15.30;;
4290;SDS011;2159;50.906;7.152;2024-03-07T00:52:43;26.70;;;15.20;;
4290;SDS011;2159;50.906;7.152;2024-03-07T00:55:12;27.20;;;15.07;;
4290;SDS011;2159;50.906;7.152;2024-03-07T00:57:41;29.07;;;15.13;;
4290;SDS011;2159;50.906;7.152;2024-03-07T01:00:09;23.87;;;15.03;;
4290;SDS011;2159;50.906;7.152;2024-03-07T01:02:40;29.90;;;17.00;;
4290;SDS011;2159;50.906;7.152;2024-03-07T01:05:10;33.27;;;16.40;;
4290;SDS011;2159;50.906;7.152;2024-03-07T01:07:39;27.90;;;16.30;;
4290;SDS011;2159;50.906;7.152;2024-03-07T01:10:09;31.73;;;16.77;;
4290;SDS011;2159;50.906;7.152;2024-03-07T01:12:36;35.17;;;16.97;;
4290;SDS011;2159;50.906;7.152;2024-03-07T01:15:04;28.00;;;16.97;;
4290;SDS011;2159;50.906;7.152;2024-03-07T01:17:31;33.03;;;18.70;;
4290;SDS011;2159;50.906;7.152;2024-03-07T01:19:59;30.70;;;16.97;;
4290;SDS011;2159;50.906;7.152;2024-03-07T01:22:29;29.50;;;16.43;;
4290;SDS011;2159;50.906;7.152;2024-03-07T01:24:56;29.80;;;16.97;;
4290;SDS011;2159;50.906;7.152;2024-03-07T01:27:25;31.27;;;16.90;;
4290;SDS011;2159;50.906;7.152;2024-03-07T01:29:53;33.33;;;17.80;;
4290;SDS011;2159;50.906;7.152;2024-03-07T01:32:20;28.67;;;16.33;;
4290;SDS011;2159;50.906;7.152;2024-03-07T01:34:48;32.47;;;15.90;;
4290;SDS011;2159;50.906;7.152;2024-03-07T01:37:16;27.53;;;16.63;;
4290;SDS011;2159;50.906;7.152;2024-03-07T01:39:43;31.07;;;17.47;;
4290;SDS011;2159;50.906;7.152;2024-03-07T01:42:11;27.43;;;16.10;;
4290;SDS011;2159;50.906;7.152;2024-03-07T01:44:40;30.07;;;16.87;;
4290;SDS011;2159;50.906;7.152;2024-03-07T01:47:07;29.00;;;15.80;;
4290;SDS011;2159;50.906;7.152;2024-03-07T01:49:35;30.10;;;16.33;;
4290;SDS011;2159;50.906;7.152;2024-03-07T01:52:05;33.10;;;17.13;;
4290;SDS011;2159;50.906;7.152;2024-03-07T01:54:32;29.83;;;16.97;;
4290;SDS011;2159;50.906;7.152;2024-03-07T01:57:01;28.70;;;15.30;;
4290;SDS011;2159;50.906;7.152;2024-03-07T01:59:29;30.87;;;16.10;;
4290;SDS011;2159;50.906;7.152;2024-03-07T02:02:00;29.60;;;16.10;;
4290;SDS011;2159;50.906;7.152;2024-03-07T02:04:28;34.33;;;16.33;;
4290;SDS011;2159;50.906;7.152;2024-03-07T02:06:56;28.80;;;16.40;;
4290;SDS011;2159;50.906;7.152;2024-03-07T02:09:25;27.37;;;15.70;;
4290;SDS011;2159;50.906;7.152;2024-03-07T02:11:52;29.80;;;16.67;;
4290;SDS011;2159;50.906;7.152;2024-03-07T02:14:20;27.87;;;15.43;;
4290;SDS011;2159;50.906;7.152;2024-03-07T02:16:48;28.97;;;15.70;;
4290;SDS011;2159;50.906;7.152;2024-03-07T02:19:16;29.23;;;16.03;;
4290;SDS011;2159;50.906;7.152;2024-03-07T02:21:45;28.23;;;15.43;;
4290;SDS011;2159;50.906;7.152;2024-03-07T02:24:13;25.77;;;14.93;;
4290;SDS011;2159;50.906;7.152;2024-03-07T02:26:41;27.07;;;15.07;;
4290;SDS011;2159;50.906;7.152;2024-03-07T02:29:10;28.20;;;14.70;;
4290;SDS011;2159;50.906;7.152;2024-03-07T02:31:37;27.67;;;16.10;;
4290;SDS011;2159;50.906;7.152;2024-03-07T02:34:08;29.87;;;15.47;;
4290;SDS011;2159;50.906;7.152;2024-03-07T02:36:35;29.20;;;16.30;;
4290;SDS011;2159;50.906;7.152;2024-03-07T02:39:04;29.00;;;15.33;;
4290;SDS011;2159;50.906;7.152;2024-03-07T02:41:32;27.80;;;15.90;;
4290;SDS011;2159;50.906;7.152;2024-03-07T02:44:01;27.77;;;14.90;;
4290;SDS011;2159;50.906;7.152;2024-03-07T02:46:29;29.33;;;16.27;;
4290;SDS011;2159;50.906;7.152;2024-03-07T02:48:58;28.93;;;14.93;;
4290;SDS011;2159;50.906;7.152;2024-03-07T02:51:26;30.40;;;16.03;;
4290;SDS011;2159;50.906;7.152;2024-03-07T02:53:53;26.33;;;15.07;;
4290;SDS011;2159;50.906;7.152;2024-03-07T02:56:22;25.87;;;14.30;;
4290;SDS011;2159;50.906;7.152;2024-03-07T02:58:50;26.50;;;14.43;;
4290;SDS011;2159;50.906;7.152;2024-03-07T03:01:18;25.80;;;15.00;;
4290;SDS011;2159;50.906;7.152;2024-03-07T03:03:45;27.80;;;15.23;;
4290;SDS011;2159;50.906;7.152;2024-03-07T03:06:13;25.70;;;15.10;;
4290;SDS011;2159;50.906;7.152;2024-03-07T03:08:41;30.17;;;16.07;;
4290;SDS011;2159;50.906;7.152;2024-03-07T03:11:08;28.53;;;15.80;;
4290;SDS011;2159;50.906;7.152;2024-03-07T03:13:41;27.90;;;15.03;;
4290;SDS011;2159;50.906;7.152;2024-03-07T03:16:09;26.40;;;15.20;;
4290;SDS011;2159;50.906;7.152;2024-03-07T03:18:36;30.00;;;14.73;;
4290;SDS011;2159;50.906;7.152;2024-03-07T03:21:05;27.33;;;15.60;;
4290;SDS011;2159;50.906;7.152;2024-03-07T03:23:32;27.83;;;15.80;;
4290;SDS011;2159;50.906;7.152;2024-03-07T03:26:00;26.87;;;15.67;;
4290;SDS011;2159;50.906;7.152;2024-03-07T03:28:28;29.53;;;15.70;;
4290;SDS011;2159;50.906;7.152;2024-03-07T03:30:57;29.47;;;15.70;;
4290;SDS011;2159;50.906;7.152;2024-03-07T03:33:24;26.07;;;14.87;;
4290;SDS011;2159;50.906;7.152;2024-03-07T03:35:52;27.87;;;15.07;;
4290;SDS011;2159;50.906;7.152;2024-03-07T03:38:21;28.17;;;15.63;;
4290;SDS011;2159;50.906;7.152;2024-03-07T03:40:49;26.80;;;15.70;;
4290;SDS011;2159;50.906;7.152;2024-03-07T03:43:16;25.43;;;15.30;;
4290;SDS011;2159;50.906;7.152;2024-03-07T03:45:44;28.73;;;14.83;;
4290;SDS011;2159;50.906;7.152;2024-03-07T03:48:15;25.60;;;15.00;;
4290;SDS011;2159;50.906;7.152;2024-03-07T03:50:43;31.20;;;15.70;;
4290;SDS011;2159;50.906;7.152;2024-03-07T03:53:13;30.33;;;15.90;;
4290;SDS011;2159;50.906;7.152;2024-03-07T03:55:40;27.50;;;15.83;;
4290;SDS011;2159;50.906;7.152;2024-03-07T03:58:08;28.13;;;15.43;;
4290;SDS011;2159;50.906;7.152;2024-03-07T04:00:36;27.70;;;15.10;;
4290;SDS011;2159;50.906;7.152;2024-03-07T04:03:05;26.60;;;15.30;;
4290;SDS011;2159;50.906;7.152;2024-03-07T04:05:34;27.80;;;15.43;;
4290;SDS011;2159;50.906;7.152;2024-03-07T04:08:02;34.53;;;15.97;;
4290;SDS011;2159;50.906;7.152;2024-03-07T04:10:30;29.37;;;14.93;;
4290;SDS011;2159;50.906;7.152;2024-03-07T04:12:58;25.87;;;14.80;;
4290;SDS011;2159;50.906;7.152;2024-03-07T04:15:25;27.77;;;14.47;;
4290;SDS011;2159;50.906;7.152;2024-03-07T04:17:59;26.20;;;14.50;;
4290;SDS011;2159;50.906;7.152;2024-03-07T04:20:27;27.97;;;15.80;;
4290;SDS011;2159;50.906;7.152;2024-03-07T04:22:56;28.23;;;14.97;;
4290;SDS011;2159;50.906;7.152;2024-03-07T04:25:24;33.33;;;15.93;;
4290;SDS011;2159;50.906;7.152;2024-03-07T04:27:51;28.23;;;15.40;;
4290;SDS011;2159;50.906;7.152;2024-03-07T04:30:19;28.10;;;16.00;;
4290;SDS011;2159;50.906;7.152;2024-03-07T04:32:47;28.23;;;15.53;;
4290;SDS011;2159;50.906;7.152;2024-03-07T04:35:15;29.07;;;15.87;;
4290;SDS011;2159;50.906;7.152;2024-03-07T04:37:45;31.40;;;16.20;;
4290;SDS011;2159;50.906;7.152;2024-03-07T04:40:14;30.80;;;16.10;;
4290;SDS011;2159;50.906;7.152;2024-03-07T04:42:44;29.00;;;14.40;;
4290;SDS011;2159;50.906;7.152;2024-03-07T04:45:12;21.97;;;13.77;;
4290;SDS011;2159;50.906;7.152;2024-03-07T04:47:40;24.63;;;14.87;;
4290;SDS011;2159;50.906;7.152;2024-03-07T04:50:09;26.07;;;14.70;;
4290;SDS011;2159;50.906;7.152;2024-03-07T04:52:37;34.00;;;14.20;;
4290;SDS011;2159;50.906;7.152;2024-03-07T04:55:05;29.50;;;14.73;;
4290;SDS011;2159;50.906;7.152;2024-03-07T04:57:35;29.80;;;15.03;;
4290;SDS011;2159;50.906;7.152;2024-03-07T05:00:05;25.13;;;14.63;;
4290;SDS011;2159;50.906;7.152;2024-03-07T05:02:33;24.77;;;14.40;;
4290;SDS011;2159;50.906;7.152;2024-03-07T05:05:01;25.60;;;14.53;;
4290;SDS011;2159;50.906;7.152;2024-03-07T05:07:28;25.23;;;14.60;;
4290;SDS011;2159;50.906;7.152;2024-03-07T05:09:56;25.57;;;14.53;;
4290;SDS011;2159;50.906;7.152;2024-03-07T05:12:23;24.00;;;14.23;;
4290;SDS011;2159;50.906;7.152;2024-03-07T05:14:52;28.60;;;14.73;;
4290;SDS011;2159;50.906;7.152;2024-03-07T05:17:20;24.33;;;14.03;;
4290;SDS011;2159;50.906;7.152;2024-03-07T05:19:48;25.07;;;14.07;;
4290;SDS011;2159;50.906;7.152;2024-03-07T05:22:16;26.30;;;15.30;;
4290;SDS011;2159;50.906;7.152;2024-03-07T05:24:46;24.37;;;13.70;;
4290;SDS011;2159;50.906;7.152;2024-03-07T05:27:13;24.37;;;14.20;;
4290;SDS011;2159;50.906;7.152;2024-03-07T05:29:41;27.33;;;13.73;;
4290;SDS011;2159;50.906;7.152;2024-03-07T05:32:21;25.60;;;14.27;;
4290;SDS011;2159;50.906;7.152;2024-03-07T05:34:49;25.33;;;14.30;;
4290;SDS011;2159;50.906;7.152;2024-03-07T05:37:17;27.50;;;15.30;;
4290;SDS011;2159;50.906;7.152;2024-03-07T05:39:46;23.43;;;14.40;;
4290;SDS011;2159;50.906;7.152;2024-03-07T05:42:14;26.17;;;15.07;;
4290;SDS011;2159;50.906;7.152;2024-03-07T05:44:41;26.00;;;15.10;;
4290;SDS011;2159;50.906;7.152;2024-03-07T05:47:09;28.47;;;14.00;;
4290;SDS011;2159;50.906;7.152;2024-03-07T05:49:39;26.40;;;15.70;;
4290;SDS011;2159;50.906;7.152;2024-03-07T05:52:07;28.40;;;15.93;;
4290;SDS011;2159;50.906;7.152;2024-03-07T05:54:35;31.80;;;15.37;;
4290;SDS011;2159;50.906;7.152;2024-03-07T05:57:02;27.83;;;15.17;;
4290;SDS011;2159;50.906;7.152;2024-03-07T05:59:33;30.03;;;16.40;;
4290;SDS011;2159;50.906;7.152;2024-03-07T06:02:00;26.70;;;15.90;;
4290;SDS011;2159;50.906;7.152;2024-03-07T06:04:28;27.47;;;15.50;;
4290;SDS011;2159;50.906;7.152;2024-03-07T06:06:57;25.73;;;16.17;;
4290;SDS011;2159;50.906;7.152;2024-03-07T06:09:25;27.87;;;15.40;;
4290;SDS011;2159;50.906;7.152;2024-03-07T06:11:53;26.63;;;14.53;;
4290;SDS011;2159;50.906;7.152;2024-03-07T06:14:20;28.13;;;15.83;;
4290;SDS011;2159;50.906;7.152;2024-03-07T06:16:49;26.23;;;15.20;;
4290;SDS011;2159;50.906;7.152;2024-03-07T06:19:18;27.60;;;15.90;;
4290;SDS011;2159;50.906;7.152;2024-03-07T06:21:45;28.30;;;15.63;;
4290;SDS011;2159;50.906;7.152;2024-03-07T06:24:15;30.00;;;15.57;;
4290;SDS011;2159;50.906;7.152;2024-03-07T06:26:44;26.03;;;14.90;;
4290;SDS011;2159;50.906;7.152;2024-03-07T06:29:26;26.10;;;14.90;;
4290;SDS011;2159;50.906;7.152;2024-03-07T06:31:54;34.13;;;15.47;;
4290;SDS011;2159;50.906;7.152;2024-03-07T06:34:22;27.47;;;15.60;;
4290;SDS011;2159;50.906;7.152;2024-03-07T06:36:49;28.03;;;15.10;;
4290;SDS011;2159;50.906;7.152;2024-03-07T06:39:19;27.00;;;15.57;;
4290;SDS011;2159;50.906;7.152;2024-03-07T06:41:48;22.23;;;14.23;;
4290;SDS011;2159;50.906;7.152;2024-03-07T06:44:16;24.20;;;14.27;;
4290;SDS011;2159;50.906;7.152;2024-03-07T06:46:49;23.47;;;14.43;;
4290;SDS011;2159;50.906;7.152;2024-03-07T06:49:17;29.80;;;16.00;;
4290;SDS011;2159;50.906;7.152;2024-03-07T06:51:44;25.33;;;15.00;;
4290;SDS011;2159;50.906;7.152;2024-03-07T06:54:12;27.43;;;16.23;;
4290;SDS011;2159;50.906;7.152;2024-03-07T06:56:41;27.90;;;15.57;;
4290;SDS011;2159;50.906;7.152;2024-03-07T06:59:09;27.60;;;14.70;;
4290;SDS011;2159;50.906;7.152;2024-03-07T07:01:37;25.27;;;15.40;;
4290;SDS011;2159;50.906;7.152;2024-03-07T07:04:09;23.50;;;13.73;;
4290;SDS011;2159;50.906;7.152;2024-03-07T07:06:39;23.67;;;14.50;;
4290;SDS011;2159;50.906;7.152;2024-03-07T07:09:09;26.27;;;15.70;;
4290;SDS011;2159;50.906;7.152;2024-03-07T07:11:36;25.20;;;14.70;;
4290;SDS011;2159;50.906;7.152;2024-03-07T07:14:06;27.27;;;16.27;;
4290;SDS011;2159;50.906;7.152;2024-03-07T07:16:33;28.33;;;15.50;;
4290;SDS011;2159;50.906;7.152;2024-03-07T07:19:02;24.67;;;15.63;;
4290;SDS011;2159;50.906;7.152;2024-03-07T07:21:29;29.20;;;15.70;;
4290;SDS011;2159;50.906;7.152;2024-03-07T07:23:57;26.30;;;14.77;;
4290;SDS011;2159;50.906;7.152;2024-03-07T07:26:25;24.77;;;14.97;;
4290;SDS011;2159;50.906;7.152;2024-03-07T07:28:52;27.60;;;15.00;;
4290;SDS011;2159;50.906;7.152;2024-03-07T07:31:22;23.87;;;14.63;;
4290;SDS011;2159;50.906;7.152;2024-03-07T07:33:50;26.80;;;15.50;;
4290;SDS011;2159;50.906;7.152;2024-03-07T07:36:18;25.80;;;14.37;;
4290;SDS011;2159;50.906;7.152;2024-03-07T07:38:45;25.40;;;14.30;;
4290;SDS011;2159;50.906;7.152;2024-03-07T07:41:13;25.13;;;14.50;;
4290;SDS011;2159;50.906;7.152;2024-03-07T07:43:40;24.53;;;14.17;;
4290;SDS011;2159;50.906;7.152;2024-03-07T07:46:09;27.50;;;15.00;;
4290;SDS011;2159;50.906;7.152;2024-03-07T07:48:38;21.17;;;12.67;;
4290;SDS011;2159;50.906;7.152;2024-03-07T07:51:06;23.70;;;15.10;;
4290;SDS011;2159;50.906;7.152;2024-03-07T07:53:33;22.93;;;13.80;;
4290;SDS011;2159;50.906;7.152;2024-03-07T07:56:01;24.67;;;14.20;;
4290;SDS011;2159;50.906;7.152;2024-03-07T07:58:29;24.13;;;14.17;;
4290;SDS011;2159;50.906;7.152;2024-03-07T08:00:56;26.63;;;15.17;;
4290;SDS011;2159;50.906;7.152;2024-03-07T08:03:24;21.13;;;13.43;;
4290;SDS011;2159;50.906;7.152;2024-03-07T08:05:52;26.93;;;14.00;;
4290;SDS011;2159;50.906;7.152;2024-03-07T08:08:20;23.77;;;14.17;;
4290;SDS011;2159;50.906;7.152;2024-03-07T08:10:48;21.90;;;13.43;;
4290;SDS011;2159;50.906;7.152;2024-03-07T08:13:16;21.47;;;14.00;;
4290;SDS011;2159;50.906;7.152;2024-03-07T08:15:44;19.70;;;12.60;;
4290;SDS011;2159;50.906;7.152;2024-03-07T08:18:12;21.43;;;14.10;;
4290;SDS011;2159;50.906;7.152;2024-03-07T08:20:39;25.10;;;13.20;;
4290;SDS011;2159;50.906;7.152;2024-03-07T08:23:10;23.30;;;14.20;;
4290;SDS011;2159;50.906;7.152;2024-03-07T08:25:39;20.50;;;12.83;;
4290;SDS011;2159;50.906;7.152;2024-03-07T08:28:07;26.63;;;13.20;;
4290;SDS011;2159;50.906;7.152;2024-03-07T08:30:35;24.50;;;13.67;;
4290;SDS011;2159;50.906;7.152;2024-03-07T08:33:03;20.70;;;12.67;;
4290;SDS011;2159;50.906;7.152;2024-03-07T08:35:33;22.50;;;14.03;;
4290;SDS011;2159;50.906;7.152;2024-03-07T08:38:01;20.03;;;12.60;;
4290;SDS011;2159;50.906;7.152;2024-03-07T08:40:30;24.30;;;13.20;;
4290;SDS011;2159;50.906;7.152;2024-03-07T08:42:58;23.87;;;13.00;;
4290;SDS011;2159;50.906;7.152;2024-03-07T08:45:27;23.10;;;12.83;;
4290;SDS011;2159;50.906;7.152;2024-03-07T08:47:55;19.50;;;11.13;;
4290;SDS011;2159;50.906;7.152;2024-03-07T08:50:25;21.47;;;12.30;;
4290;SDS011;2159;50.906;7.152;2024-03-07T08:52:54;18.07;;;11.43;;
4290;SDS011;2159;50.906;7.152;2024-03-07T08:55:22;17.23;;;10.97;;
4290;SDS011;2159;50.906;7.152;2024-03-07T08:57:52;20.57;;;12.30;;
4290;SDS011;2159;50.906;7.152;2024-03-07T09:00:19;16.93;;;11.10;;
4290;SDS011;2159;50.906;7.152;2024-03-07T09:02:51;21.37;;;11.20;;
4290;SDS011;2159;50.906;7.152;2024-03-07T09:05:20;21.77;;;11.97;;
4290;SDS011;2159;50.906;7.152;2024-03-07T09:07:48;21.63;;;11.90;;
4290;SDS011;2159;50.906;7.152;2024-03-07T09:10:16;20.07;;;11.33;;
4290;SDS011;2159;50.906;7.152;2024-03-07T09:12:44;19.63;;;11.50;;
4290;SDS011;2159;50.906;7.152;2024-03-07T09:15:16;18.30;;;11.00;;
4290;SDS011;2159;50.906;7.152;2024-03-07T09:17:44;23.33;;;12.10;;
4290;SDS011;2159;50.906;7.152;2024-03-07T09:20:13;18.63;;;11.10;;
4290;SDS011;2159;50.906;7.152;2024-03-07T09:22:42;16.70;;;10.47;;
4290;SDS011;2159;50.906;7.152;2024-03-07T09:25:10;18.80;;;11.57;;
4290;SDS011;2159;50.906;7.152;2024-03-07T09:27:39;19.33;;;11.63;;
4290;SDS011;2159;50.906;7.152;2024-03-07T09:30:07;20.43;;;11.90;;
4290;SDS011;2159;50.906;7.152;2024-03-07T09:32:40;18.63;;;11.70;;
4290;SDS011;2159;50.906;7.152;2024-03-07T09:35:08;18.40;;;11.10;;
4290;SDS011;2159;50.906;7.152;2024-03-07T09:37:38;21.10;;;11.70;;
4290;SDS011;2159;50.906;7.152;2024-03-07T09:40:07;20.47;;;12.47;;
4290;SDS011;2159;50.906;7.152;2024-03-07T09:42:37;19.20;;;11.73;;
4290;SDS011;2159;50.906;7.152;2024-03-07T09:45:09;21.37;;;12.40;;
4290;SDS011;2159;50.906;7.152;2024-03-07T09:47:37;22.97;;;11.70;;
4290;SDS011;2159;50.906;7.152;2024-03-07T09:50:07;20.07;;;12.33;;
4290;SDS011;2159;50.906;7.152;2024-03-07T09:52:35;25.00;;;12.37;;
4290;SDS011;2159;50.906;7.152;2024-03-07T09:55:03;22.73;;;11.87;;
4290;SDS011;2159;50.906;7.152;2024-03-07T09:57:32;18.80;;;11.40;;
4290;SDS011;2159;50.906;7.152;2024-03-07T10:00:01;22.77;;;10.73;;
4290;SDS011;2159;50.906;7.152;2024-03-07T10:02:29;19.07;;;11.23;;
4290;SDS011;2159;50.906;7.152;2024-03-07T10:04:59;19.93;;;11.70;;
4290;SDS011;2159;50.906;7.152;2024-03-07T10:07:29;18.93;;;11.60;;
4290;SDS011;2159;50.906;7.152;2024-03-07T10:09:57;16.67;;;11.20;;
4290;SDS011;2159;50.906;7.152;2024-03-07T10:12:26;21.40;;;11.97;;
4290;SDS011;2159;50.906;7.152;2024-03-07T10:14:55;21.20;;;11.87;;
4290;SDS011;2159;50.906;7.152;2024-03-07T10:17:23;20.83;;;11.50;;
4290;SDS011;2159;50.906;7.152;2024-03-07T10:19:52;23.30;;;11.80;;
4290;SDS011;2159;50.906;7.152;2024-03-07T10:22:21;20.37;;;12.23;;
4290;SDS011;2159;50.906;7.152;2024-03-07T10:24:50;18.50;;;11.43;;
4290;SDS011;2159;50.906;7.152;2024-03-07T10:27:18;23.13;;;11.40;;
4290;SDS011;2159;50.906;7.152;2024-03-07T10:29:46;21.20;;;11.83;;
4290;SDS011;2159;50.906;7.152;2024-03-07T10:32:18;18.50;;;11.87;;
4290;SDS011;2159;50.906;7.152;2024-03-07T10:34:46;17.90;;;11.70;;
4290;SDS011;2159;50.906;7.152;2024-03-07T10:37:14;17.07;;;11.23;;
4290;SDS011;2159;50.906;7.152;2024-03-07T10:39:43;19.23;;;11.53;;
4290;SDS011;2159;50.906;7.152;2024-03-07T10:42:14;17.23;;;10.80;;
4290;SDS011;2159;50.906;7.152;2024-03-07T10:44:43;16.17;;;10.80;;
4290;SDS011;2159;50.906;7.152;2024-03-07T10:47:11;22.60;;;11.20;;
4290;SDS011;2159;50.906;7.152;2024-03-07T10:49:44;18.17;;;10.57;;
4290;SDS011;2159;50.906;7.152;2024-03-07T10:52:18;16.60;;;10.70;;
4290;SDS011;2159;50.906;7.152;2024-03-07T10:54:54;16.07;;;10.87;;
4290;SDS011;2159;50.906;7.152;2024-03-07T10:57:44;18.73;;;11.63;;
4290;SDS011;2159;50.906;7.152;2024-03-07T11:00:14;17.43;;;11.00;;
4290;SDS011;2159;50.906;7.152;2024-03-07T11:02:56;16.43;;;10.50;;
4290;SDS011;2159;50.906;7.152;2024-03-07T11:05:25;20.77;;;10.83;;
4290;SDS011;2159;50.906;7.152;2024-03-07T11:07:56;19.07;;;11.13;;
4290;SDS011;2159;50.906;7.152;2024-03-07T11:10:25;18.53;;;11.80;;
4290;SDS011;2159;50.906;7.152;2024-03-07T11:12:54;22.07;;;11.40;;
4290;SDS011;2159;50.906;7.152;2024-03-07T11:15:23;19.50;;;11.60;;
4290;SDS011;2159;50.906;7.152;2024-03-07T11:17:54;18.17;;;10.50;;
4290;SDS011;2159;50.906;7.152;2024-03-07T11:20:22;16.97;;;10.50;;
4290;SDS011;2159;50.906;7.152;2024-03-07T11:22:50;18.20;;;11.17;;
4290;SDS011;2159;50.906;7.152;2024-03-07T11:25:20;20.53;;;11.27;;
4290;SDS011;2159;50.906;7.152;2024-03-07T11:27:51;17.37;;;10.27;;
4290;SDS011;2159;50.906;7.152;2024-03-07T11:30:21;17.80;;;10.73;;
4290;SDS011;2159;50.906;7.152;2024-03-07T11:32:49;15.50;;;10.37;;
4290;SDS011;2159;50.906;7.152;2024-03-07T11:35:20;14.37;;;10.23;;
4290;SDS011;2159;50.906;7.152;2024-03-07T11:37:56;18.23;;;10.40;;
4290;SDS011;2159;50.906;7.152;2024-03-07T11:43:11;14.73;;;9.80;;
4290;SDS011;2159;50.906;7.152;2024-03-07T11:45:40;16.67;;;10.23;;
4290;SDS011;2159;50.906;7.152;2024-03-07T11:48:18;16.63;;;9.27;;
4290;SDS011;2159;50.906;7.152;2024-03-07T11:50:48;15.07;;;9.37;;
4290;SDS011;2159;50.906;7.152;2024-03-07T11:53:15;15.23;;;9.13;;
4290;SDS011;2159;50.906;7.152;2024-03-07T11:55:43;12.07;;;8.90;;
4290;SDS011;2159;50.906;7.152;2024-03-07T11:58:12;15.17;;;9.63;;
4290;SDS011;2159;50.906;7.152;2024-03-07T12:00:41;13.90;;;9.20;;
4290;SDS011;2159;50.906;7.152;2024-03-07T12:03:11;11.77;;;8.40;;
4290;SDS011;2159;50.906;7.152;2024-03-07T12:05:40;14.07;;;8.40;;
4290;SDS011;2159;50.906;7.152;2024-03-07T12:08:08;11.53;;;8.13;;
4290;SDS011;2159;50.906;7.152;2024-03-07T12:10:37;13.73;;;8.97;;
4290;SDS011;2159;50.906;7.152;2024-03-07T12:13:06;14.40;;;8.57;;
4290;SDS011;2159;50.906;7.152;2024-03-07T12:15:34;12.17;;;8.50;;
4290;SDS011;2159;50.906;7.152;2024-03-07T12:18:04;12.73;;;8.40;;
4290;SDS011;2159;50.906;7.152;2024-03-07T12:20:36;14.50;;;8.50;;
4290;SDS011;2159;50.906;7.152;2024-03-07T12:23:04;13.47;;;8.33;;
4290;SDS011;2159;50.906;7.152;2024-03-07T12:25:35;13.50;;;8.30;;
4290;SDS011;2159;50.906;7.152;2024-03-07T12:28:03;10.73;;;7.73;;
4290;SDS011;2159;50.906;7.152;2024-03-07T12:30:32;11.93;;;8.03;;
4290;SDS011;2159;50.906;7.152;2024-03-07T12:33:00;11.17;;;8.07;;
4290;SDS011;2159;50.906;7.152;2024-03-07T12:35:31;11.00;;;7.30;;
4290;SDS011;2159;50.906;7.152;2024-03-07T12:37:59;11.10;;;7.77;;
4290;SDS011;2159;50.906;7.152;2024-03-07T12:40:26;12.40;;;7.93;;
4290;SDS011;2159;50.906;7.152;2024-03-07T12:42:56;17.13;;;7.87;;
4290;SDS011;2159;50.906;7.152;2024-03-07T12:45:23;12.50;;;7.93;;
4290;SDS011;2159;50.906;7.152;2024-03-07T12:47:51;13.10;;;8.93;;
4290;SDS011;2159;50.906;7.152;2024-03-07T12:50:20;13.60;;;8.77;;
4290;SDS011;2159;50.906;7.152;2024-03-07T12:52:49;11.20;;;7.90;;
4290;SDS011;2159;50.906;7.152;2024-03-07T12:55:18;11.40;;;8.20;;
4290;SDS011;2159;50.906;7.152;2024-03-07T12:57:47;11.40;;;7.90;;
4290;SDS011;2159;50.906;7.152;2024-03-07T13:00:16;12.20;;;8.93;;
4290;SDS011;2159;50.906;7.152;2024-03-07T13:02:46;11.90;;;7.90;;
4290;SDS011;2159;50.906;7.152;2024-03-07T13:05:14;15.63;;;7.90;;
4290;SDS011;2159;50.906;7.152;2024-03-07T13:07:49;11.60;;;7.20;;
4290;SDS011;2159;50.906;7.152;2024-03-07T13:10:17;12.50;;;8.10;;
4290;SDS011;2159;50.906;7.152;2024-03-07T13:12:46;12.07;;;8.23;;
4290;SDS011;2159;50.906;7.152;2024-03-07T13:15:15;14.00;;;7.67;;
4290;SDS011;2159;50.906;7.152;2024-03-07T13:17:43;11.43;;;7.93;;
4290;SDS011;2159;50.906;7.152;2024-03-07T13:20:11;13.80;;;7.17;;
4290;SDS011;2159;50.906;7.152;2024-03-07T13:22:39;12.50;;;8.50;;
4290;SDS011;2159;50.906;7.152;2024-03-07T13:25:11;9.63;;;7.50;;
4290;SDS011;2159;50.906;7.152;2024-03-07T13:27:43;10.77;;;7.70;;
4290;SDS011;2159;50.906;7.152;2024-03-07T13:30:11;9.30;;;7.10;;
4290;SDS011;2159;50.906;7.152;2024-03-07T13:32:50;12.20;;;7.10;;
4290;SDS011;2159;50.906;7.152;2024-03-07T13:35:19;10.10;;;6.80;;
4290;SDS011;2159;50.906;7.152;2024-03-07T13:37:48;10.93;;;7.17;;
4290;SDS011;2159;50.906;7.152;2024-03-07T13:40:17;10.27;;;7.33;;
4290;SDS011;2159;50.906;7.152;2024-03-07T13:42:52;9.97;;;7.80;;
4290;SDS011;2159;50.906;7.152;2024-03-07T13:45:20;10.63;;;7.50;;
4290;SDS011;2159;50.906;7.152;2024-03-07T13:47:48;14.80;;;8.20;;
4290;SDS011;2159;50.906;7.152;2024-03-07T13:50:16;10.03;;;7.10;;
4290;SDS011;2159;50.906;7.152;2024-03-07T13:53:01;10.80;;;7.83;;
4290;SDS011;2159;50.906;7.152;2024-03-07T13:55:53;10.77;;;7.37;;
4290;SDS011;2159;50.906;7.152;2024-03-07T14:01:12;10.87;;;7.57;;
4290;SDS011;2159;50.906;7.152;2024-03-07T14:06:38;11.83;;;8.03;;
4290;SDS011;2159;50.906;7.152;2024-03-07T14:09:30;16.50;;;7.90;;
4290;SDS011;2159;50.906;7.152;2024-03-07T14:12:09;11.93;;;7.80;;
4290;SDS011;2159;50.906;7.152;2024-03-07T14:14:45;10.50;;;7.40;;
4290;SDS011;2159;50.906;7.152;2024-03-07T14:23:04;11.03;;;7.90;;
4290;SDS011;2159;50.906;7.152;2024-03-07T14:25:47;12.47;;;8.00;;
4290;SDS011;2159;50.906;7.152;2024-03-07T14:28:26;10.27;;;7.33;;
4290;SDS011;2159;50.906;7.152;2024-03-07T14:30:56;9.90;;;7.30;;
4290;SDS011;2159;50.906;7.152;2024-03-07T14:33:26;9.10;;;6.83;;
4290;SDS011;2159;50.906;7.152;2024-03-07T14:35:58;9.73;;;7.00;;
4290;SDS011;2159;50.906;7.152;2024-03-07T14:38:26;12.60;;;7.67;;
4290;SDS011;2159;50.906;7.152;2024-03-07T14:40:54;9.00;;;7.03;;
4290;SDS011;2159;50.906;7.152;2024-03-07T14:43:23;9.23;;;6.50;;
4290;SDS011;2159;50.906;7.152;2024-03-07T14:45:51;10.70;;;7.57;;
4290;SDS011;2159;50.906;7.152;2024-03-07T14:48:21;10.57;;;7.30;;
4290;SDS011;2159;50.906;7.152;2024-03-07T14:50:50;11.40;;;7.03;;
4290;SDS011;2159;50.906;7.152;2024-03-07T14:53:18;11.20;;;6.87;;
4290;SDS011;2159;50.906;7.152;2024-03-07T14:55:50;9.17;;;7.03;;
4290;SDS011;2159;50.906;7.152;2024-03-07T14:58:18;9.70;;;6.20;;
4290;SDS011;2159;50.906;7.152;2024-03-07T15:00:47;9.40;;;6.47;;
4290;SDS011;2159;50.906;7.152;2024-03-07T15:03:23;9.60;;;6.40;;
4290;SDS011;2159;50.906;7.152;2024-03-07T15:05:54;8.60;;;6.60;;
4290;SDS011;2159;50.906;7.152;2024-03-07T15:08:21;9.70;;;6.53;;
4290;SDS011;2159;50.906;7.152;2024-03-07T15:10:51;9.40;;;7.20;;
4290;SDS011;2159;50.906;7.152;2024-03-07T15:13:19;10.47;;;6.90;;
4290;SDS011;2159;50.906;7.152;2024-03-07T15:15:48;10.57;;;7.17;;